AKJ1503 VABB-VEGT
Flight info
| Callsign | AKJ1503 |
|---|---|
| Flight time | N/A |
| Altitude | 37000 |
| Route | ANOLI2A NONEN Q19 DADSO W100 RRC/N0388F250 W64 DGP B209 RAJ R472 ATOGA ATOGA1C |
| Aircraft | B38M/M-SDE1FGHILORVWXY/HB1 |
Departure
| Time | 2026-04-27 10:05 |
|---|---|
| Airport | Chhatrapati Shivaji Maharaj International Airport (VABB) |
Arrival
| Time | N/A |
|---|---|
| Airport | Lokpriya Gopinath Bordoloi International Airport (VEGT) |
| Time | Latitude | Longitude | Altitude | Speed | Heading |
|---|---|---|---|---|---|
| 2026-04-27 09:36 | 19.09572 | 72.87743 | 41 ft | 0 kts | 243° |
| 2026-04-27 09:54 | 19.09578 | 72.87755 | 41 ft | 2 kts | 242° |
| 2026-04-27 09:54 | 19.09585 | 72.87769 | 41 ft | 2 kts | 243° |
| 2026-04-27 09:55 | 19.09592 | 72.87783 | 41 ft | 2 kts | 243° |
| 2026-04-27 09:55 | 19.09598 | 72.87798 | 41 ft | 2 kts | 243° |
| 2026-04-27 09:55 | 19.09623 | 72.87811 | 42 ft | 2 kts | 168° |
| 2026-04-27 09:56 | 19.09636 | 72.87804 | 42 ft | 2 kts | 133° |
| 2026-04-27 09:56 | 19.09644 | 72.87792 | 42 ft | 2 kts | 128° |
| 2026-04-27 09:56 | 19.09652 | 72.87782 | 43 ft | 0 kts | 131° |
| 2026-04-27 09:56 | 19.09654 | 72.87781 | 43 ft | 0 kts | 130° |
| 2026-04-27 09:59 | 19.09650 | 72.87785 | 43 ft | 3 kts | 130° |
| 2026-04-27 09:59 | 19.09611 | 72.87833 | 41 ft | 11 kts | 134° |
| 2026-04-27 10:00 | 19.09538 | 72.87851 | 38 ft | 9 kts | 205° |
| 2026-04-27 10:00 | 19.09457 | 72.87801 | 35 ft | 15 kts | 211° |
| 2026-04-27 10:00 | 19.09376 | 72.87762 | 33 ft | 13 kts | 190° |
| 2026-04-27 10:00 | 19.09265 | 72.87759 | 30 ft | 14 kts | 180° |
| 2026-04-27 10:01 | 19.09180 | 72.87761 | 30 ft | 10 kts | 175° |
| 2026-04-27 10:01 | 19.09117 | 72.87795 | 31 ft | 8 kts | 169° |
| 2026-04-27 10:01 | 19.09066 | 72.87820 | 32 ft | 10 kts | 122° |
| 2026-04-27 10:01 | 19.09060 | 72.87907 | 34 ft | 11 kts | 89° |
| 2026-04-27 10:02 | 19.09060 | 72.87996 | 37 ft | 12 kts | 90° |
| 2026-04-27 10:02 | 19.09038 | 72.88045 | 38 ft | 6 kts | 159° |
| 2026-04-27 10:02 | 19.09009 | 72.88050 | 39 ft | 0 kts | 177° |
| 2026-04-27 10:03 | 19.09001 | 72.88051 | 39 ft | 4 kts | 177° |
| 2026-04-27 10:03 | 19.08938 | 72.88047 | 39 ft | 11 kts | 194° |
| 2026-04-27 10:03 | 19.08887 | 72.87991 | 38 ft | 12 kts | 261° |
| 2026-04-27 10:03 | 19.08886 | 72.87909 | 36 ft | 6 kts | 269° |
| 2026-04-27 10:04 | 19.08886 | 72.87901 | 36 ft | 0 kts | 269° |
| 2026-04-27 10:04 | 19.08885 | 72.87840 | 34 ft | 29 kts | 269° |
| 2026-04-27 10:04 | 19.08879 | 72.87378 | 26 ft | 95 kts | 269° |
| 2026-04-27 10:04 | 19.08865 | 72.86502 | 32 ft | 146 kts | 269° |
| 2026-04-27 10:05 | 19.08851 | 72.85294 | 127 ft | 178 kts | 267° |
| 2026-04-27 10:05 | 19.08810 | 72.84005 | 701 ft | 180 kts | 267° |
| 2026-04-27 10:05 | 19.08795 | 72.82649 | 1130 ft | 192 kts | 269° |
| 2026-04-27 10:05 | 19.08797 | 72.81235 | 1453 ft | 200 kts | 269° |
| 2026-04-27 10:06 | 19.08783 | 72.79727 | 1637 ft | 218 kts | 269° |
| 2026-04-27 10:06 | 19.08881 | 72.78065 | 1884 ft | 233 kts | 282° |
| 2026-04-27 10:06 | 19.09602 | 72.76502 | 2173 ft | 248 kts | 311° |
| 2026-04-27 10:06 | 19.10982 | 72.75401 | 2516 ft | 259 kts | 333° |
| 2026-04-27 10:07 | 19.12711 | 72.74818 | 2948 ft | 266 kts | 352° |
| 2026-04-27 10:07 | 19.14547 | 72.74676 | 3644 ft | 265 kts | 358° |
| 2026-04-27 10:07 | 19.16375 | 72.74632 | 4355 ft | 264 kts | 359° |
| 2026-04-27 10:07 | 19.18177 | 72.74577 | 4956 ft | 267 kts | 358° |
| 2026-04-27 10:08 | 19.20001 | 72.74493 | 5627 ft | 268 kts | 357° |
| 2026-04-27 10:08 | 19.21867 | 72.74393 | 6260 ft | 271 kts | 357° |
| 2026-04-27 10:08 | 19.23758 | 72.74290 | 6827 ft | 276 kts | 357° |
| 2026-04-27 10:08 | 19.25703 | 72.74180 | 7401 ft | 282 kts | 357° |
| 2026-04-27 10:09 | 19.27594 | 72.74075 | 7969 ft | 287 kts | 359° |
| 2026-04-27 10:09 | 19.29506 | 72.74173 | 8553 ft | 290 kts | 12° |
| 2026-04-27 10:09 | 19.31241 | 72.74863 | 9048 ft | 295 kts | 34° |
| 2026-04-27 10:09 | 19.32867 | 72.76238 | 9598 ft | 300 kts | 44° |
| 2026-04-27 10:10 | 19.34411 | 72.77762 | 9764 ft | 307 kts | 45° |
| 2026-04-27 10:10 | 19.35989 | 72.79327 | 10202 ft | 319 kts | 44° |
| 2026-04-27 10:10 | 19.37663 | 72.80944 | 10487 ft | 336 kts | 43° |
| 2026-04-27 10:10 | 19.39467 | 72.82647 | 10866 ft | 349 kts | 43° |
| 2026-04-27 10:11 | 19.41310 | 72.84366 | 11170 ft | 364 kts | 42° |
| 2026-04-27 10:11 | 19.43240 | 72.86159 | 11463 ft | 378 kts | 43° |
| 2026-04-27 10:11 | 19.45087 | 72.88079 | 11995 ft | 383 kts | 50° |
| 2026-04-27 10:11 | 19.46498 | 72.90319 | 12555 ft | 385 kts | 67° |
| 2026-04-27 10:12 | 19.47282 | 72.92962 | 13249 ft | 384 kts | 78° |
| 2026-04-27 10:12 | 19.47850 | 72.95782 | 13837 ft | 389 kts | 80° |
| 2026-04-27 10:12 | 19.48356 | 72.98559 | 14545 ft | 391 kts | 80° |
| 2026-04-27 10:12 | 19.48880 | 73.01426 | 15161 ft | 397 kts | 79° |
| 2026-04-27 10:13 | 19.49425 | 73.04301 | 15822 ft | 401 kts | 78° |
| 2026-04-27 10:13 | 19.49996 | 73.07201 | 16424 ft | 405 kts | 78° |
| 2026-04-27 10:13 | 19.50591 | 73.10111 | 17091 ft | 408 kts | 77° |
| 2026-04-27 10:13 | 19.51210 | 73.13049 | 17683 ft | 413 kts | 76° |
| 2026-04-27 10:14 | 19.51842 | 73.16007 | 18193 ft | 419 kts | 76° |
| 2026-04-27 10:14 | 19.52494 | 73.19057 | 18729 ft | 424 kts | 77° |
| 2026-04-27 10:14 | 19.53142 | 73.22098 | 19272 ft | 429 kts | 77° |
| 2026-04-27 10:14 | 19.53804 | 73.25217 | 19764 ft | 435 kts | 77° |
| 2026-04-27 10:15 | 19.54467 | 73.28343 | 20232 ft | 441 kts | 77° |
| 2026-04-27 10:15 | 19.55140 | 73.31531 | 20767 ft | 445 kts | 77° |
| 2026-04-27 10:15 | 19.55818 | 73.34750 | 21222 ft | 450 kts | 77° |
| 2026-04-27 10:15 | 19.56405 | 73.38013 | 21687 ft | 455 kts | 81° |
| 2026-04-27 10:16 | 19.56831 | 73.41328 | 22171 ft | 459 kts | 83° |
| 2026-04-27 10:16 | 19.57172 | 73.44709 | 22553 ft | 465 kts | 85° |
| 2026-04-27 10:16 | 19.57477 | 73.48137 | 22985 ft | 471 kts | 85° |
| 2026-04-27 10:16 | 19.57772 | 73.51569 | 23471 ft | 476 kts | 85° |
| 2026-04-27 10:17 | 19.58076 | 73.55075 | 23812 ft | 483 kts | 85° |
| 2026-04-27 10:17 | 19.58392 | 73.58615 | 24325 ft | 486 kts | 85° |
| 2026-04-27 10:17 | 19.58734 | 73.62205 | 24651 ft | 493 kts | 84° |
| 2026-04-27 10:17 | 19.59162 | 73.65710 | 25105 ft | 497 kts | 81° |
| 2026-04-27 10:18 | 19.59956 | 73.69276 | 25468 ft | 502 kts | 72° |
| 2026-04-27 10:18 | 19.61189 | 73.72702 | 25876 ft | 505 kts | 65° |
| 2026-04-27 10:18 | 19.62694 | 73.76031 | 26229 ft | 510 kts | 62° |
| 2026-04-27 10:18 | 19.64382 | 73.79371 | 26616 ft | 513 kts | 59° |
| 2026-04-27 10:19 | 19.66099 | 73.82608 | 26974 ft | 518 kts | 59° |
| 2026-04-27 10:19 | 19.67909 | 73.85974 | 27320 ft | 523 kts | 58° |
| 2026-04-27 10:19 | 19.69685 | 73.89301 | 27889 ft | 522 kts | 59° |
| 2026-04-27 10:19 | 19.71434 | 73.92622 | 28410 ft | 523 kts | 59° |
| 2026-04-27 10:20 | 19.73203 | 73.96027 | 28892 ft | 524 kts | 59° |
| 2026-04-27 10:20 | 19.74931 | 73.99406 | 29310 ft | 527 kts | 60° |
| 2026-04-27 10:20 | 19.76549 | 74.02851 | 29909 ft | 526 kts | 64° |
| 2026-04-27 10:20 | 19.78003 | 74.06398 | 30392 ft | 527 kts | 67° |
| 2026-04-27 10:21 | 19.79347 | 74.10026 | 30892 ft | 527 kts | 69° |
| 2026-04-27 10:21 | 19.80612 | 74.13638 | 31336 ft | 528 kts | 70° |
| 2026-04-27 10:21 | 19.81868 | 74.17300 | 31861 ft | 527 kts | 70° |
| 2026-04-27 10:21 | 19.83117 | 74.20949 | 32243 ft | 529 kts | 70° |
| 2026-04-27 10:22 | 19.84377 | 74.24604 | 32708 ft | 529 kts | 69° |
| 2026-04-27 10:22 | 19.85640 | 74.28230 | 33208 ft | 528 kts | 70° |
| 2026-04-27 10:22 | 19.86902 | 74.31818 | 33728 ft | 525 kts | 69° |
| 2026-04-27 10:22 | 19.88191 | 74.35458 | 34120 ft | 525 kts | 69° |
| 2026-04-27 10:23 | 19.89473 | 74.39065 | 34419 ft | 526 kts | 70° |
| 2026-04-27 10:23 | 19.90737 | 74.42623 | 34809 ft | 525 kts | 69° |
| 2026-04-27 10:23 | 19.92004 | 74.46188 | 35307 ft | 521 kts | 69° |
| 2026-04-27 10:23 | 19.93287 | 74.49800 | 35611 ft | 522 kts | 69° |
| 2026-04-27 10:24 | 19.94561 | 74.53374 | 35952 ft | 521 kts | 69° |
| 2026-04-27 10:24 | 19.95814 | 74.56882 | 36282 ft | 521 kts | 69° |
| 2026-04-27 10:24 | 19.97098 | 74.60486 | 36617 ft | 520 kts | 69° |
| 2026-04-27 10:24 | 19.98351 | 74.64008 | 36850 ft | 522 kts | 69° |
| 2026-04-27 10:25 | 20.00837 | 74.71004 | 36857 ft | 532 kts | 69° |
| 2026-04-27 10:25 | 20.03502 | 74.78324 | 36853 ft | 534 kts | 69° |
| 2026-04-27 10:26 | 20.06178 | 74.85548 | 36853 ft | 531 kts | 69° |
| 2026-04-27 10:26 | 20.08881 | 74.92815 | 36851 ft | 532 kts | 68° |
| 2026-04-27 10:27 | 20.11355 | 74.99499 | 36857 ft | 531 kts | 68° |
| 2026-04-27 10:27 | 20.14125 | 75.07049 | 36871 ft | 530 kts | 69° |
| 2026-04-27 10:28 | 20.16756 | 75.14239 | 36876 ft | 529 kts | 69° |
| 2026-04-27 10:28 | 20.19434 | 75.21571 | 36893 ft | 530 kts | 69° |
| 2026-04-27 10:29 | 20.22080 | 75.28850 | 36893 ft | 530 kts | 68° |
| 2026-04-27 10:29 | 20.24751 | 75.36195 | 36881 ft | 529 kts | 68° |
| 2026-04-27 10:30 | 20.27383 | 75.43434 | 36875 ft | 528 kts | 68° |
| 2026-04-27 10:30 | 20.30018 | 75.50823 | 36858 ft | 530 kts | 70° |
| 2026-04-27 10:31 | 20.32187 | 75.58306 | 36848 ft | 530 kts | 75° |
| 2026-04-27 10:31 | 20.34107 | 75.65874 | 36840 ft | 528 kts | 75° |
| 2026-04-27 10:32 | 20.36005 | 75.73365 | 36839 ft | 530 kts | 75° |
| 2026-04-27 10:32 | 20.37964 | 75.80939 | 36841 ft | 531 kts | 75° |
| 2026-04-27 10:33 | 20.39937 | 75.88477 | 36843 ft | 530 kts | 74° |
| 2026-04-27 10:33 | 20.41942 | 75.96056 | 36845 ft | 529 kts | 74° |
| 2026-04-27 10:34 | 20.43952 | 76.03604 | 36844 ft | 530 kts | 74° |
| 2026-04-27 10:34 | 20.46026 | 76.11134 | 36845 ft | 531 kts | 73° |
| 2026-04-27 10:35 | 20.48142 | 76.18718 | 36842 ft | 531 kts | 73° |
| 2026-04-27 10:35 | 20.50232 | 76.26255 | 36840 ft | 531 kts | 73° |
| 2026-04-27 10:36 | 20.52308 | 76.33781 | 36819 ft | 531 kts | 73° |
| 2026-04-27 10:36 | 20.54400 | 76.41393 | 36801 ft | 531 kts | 73° |
| 2026-04-27 10:37 | 20.56470 | 76.48943 | 36784 ft | 532 kts | 73° |
| 2026-04-27 10:37 | 20.58540 | 76.56507 | 36762 ft | 532 kts | 73° |
| 2026-04-27 10:38 | 20.60598 | 76.64085 | 36746 ft | 532 kts | 73° |
| 2026-04-27 10:38 | 20.62657 | 76.71671 | 36728 ft | 532 kts | 73° |
| 2026-04-27 10:39 | 20.64714 | 76.79250 | 36722 ft | 531 kts | 73° |
| 2026-04-27 10:39 | 20.66766 | 76.86813 | 36717 ft | 532 kts | 73° |
| 2026-04-27 10:40 | 20.68833 | 76.94420 | 36722 ft | 533 kts | 73° |
| 2026-04-27 10:40 | 20.70898 | 77.02028 | 36729 ft | 533 kts | 73° |
| 2026-04-27 10:41 | 20.72931 | 77.09547 | 36733 ft | 533 kts | 73° |
| 2026-04-27 10:41 | 20.74990 | 77.17217 | 36733 ft | 534 kts | 73° |
| 2026-04-27 10:42 | 20.77021 | 77.24789 | 36729 ft | 533 kts | 73° |
| 2026-04-27 10:42 | 20.79066 | 77.32440 | 36726 ft | 533 kts | 73° |
| 2026-04-27 10:43 | 20.81097 | 77.40039 | 36717 ft | 534 kts | 73° |
| 2026-04-27 10:43 | 20.83145 | 77.47691 | 36725 ft | 532 kts | 73° |
| 2026-04-27 10:44 | 20.85164 | 77.55248 | 36723 ft | 532 kts | 74° |
| 2026-04-27 10:44 | 20.87231 | 77.62896 | 36723 ft | 533 kts | 73° |
| 2026-04-27 10:45 | 20.89228 | 77.70186 | 36719 ft | 532 kts | 73° |
| 2026-04-27 10:45 | 20.91333 | 77.77873 | 36719 ft | 533 kts | 73° |
| 2026-04-27 10:46 | 20.93420 | 77.85452 | 36719 ft | 533 kts | 73° |
| 2026-04-27 10:46 | 20.95587 | 77.93055 | 36716 ft | 533 kts | 72° |
| 2026-04-27 10:47 | 20.97765 | 78.00618 | 36717 ft | 533 kts | 72° |
| 2026-04-27 10:47 | 20.99945 | 78.08223 | 36713 ft | 533 kts | 72° |
| 2026-04-27 10:48 | 21.02107 | 78.15794 | 36712 ft | 531 kts | 72° |
| 2026-04-27 10:48 | 21.04257 | 78.23381 | 36718 ft | 533 kts | 72° |
| 2026-04-27 10:49 | 21.06402 | 78.31000 | 36724 ft | 532 kts | 72° |
| 2026-04-27 10:49 | 21.08523 | 78.38563 | 36730 ft | 531 kts | 72° |
| 2026-04-27 10:50 | 21.10641 | 78.46117 | 36735 ft | 532 kts | 73° |
| 2026-04-27 10:50 | 21.12772 | 78.53706 | 36743 ft | 531 kts | 72° |
| 2026-04-27 10:51 | 21.14895 | 78.61288 | 36739 ft | 533 kts | 72° |
| 2026-04-27 10:51 | 21.17008 | 78.68846 | 36745 ft | 530 kts | 72° |
| 2026-04-27 10:52 | 21.19098 | 78.76325 | 36739 ft | 531 kts | 72° |
| 2026-04-27 10:52 | 21.21200 | 78.83907 | 36729 ft | 532 kts | 72° |
| 2026-04-27 10:53 | 21.24342 | 78.95324 | 36717 ft | 532 kts | 73° |
| 2026-04-27 10:54 | 21.26430 | 79.02931 | 36709 ft | 529 kts | 72° |
| 2026-04-27 10:54 | 21.28499 | 79.10499 | 36711 ft | 532 kts | 73° |
| 2026-04-27 10:55 | 21.30575 | 79.18102 | 36715 ft | 531 kts | 72° |
| 2026-04-27 10:55 | 21.32633 | 79.25664 | 36721 ft | 529 kts | 72° |
| 2026-04-27 10:56 | 21.34697 | 79.33216 | 36728 ft | 529 kts | 72° |
| 2026-04-27 10:56 | 21.36767 | 79.40813 | 36729 ft | 530 kts | 72° |
| 2026-04-27 10:57 | 21.38821 | 79.48401 | 36730 ft | 529 kts | 72° |
| 2026-04-27 10:57 | 21.40875 | 79.55974 | 36721 ft | 531 kts | 72° |
| 2026-04-27 10:58 | 21.42932 | 79.63564 | 36715 ft | 529 kts | 72° |
| 2026-04-27 10:58 | 21.44968 | 79.71109 | 36713 ft | 530 kts | 72° |
| 2026-04-27 10:59 | 21.47003 | 79.78651 | 36709 ft | 531 kts | 72° |
| 2026-04-27 10:59 | 21.49044 | 79.86281 | 36707 ft | 530 kts | 72° |
| 2026-04-27 11:00 | 21.52109 | 79.97685 | 36703 ft | 532 kts | 72° |
| 2026-04-27 11:00 | 21.54158 | 80.05323 | 36699 ft | 530 kts | 72° |
| 2026-04-27 11:01 | 21.56192 | 80.12925 | 36696 ft | 530 kts | 72° |
| 2026-04-27 11:01 | 21.58224 | 80.20554 | 36698 ft | 532 kts | 72° |
| 2026-04-27 11:02 | 21.60269 | 80.28194 | 36702 ft | 529 kts | 71° |
| 2026-04-27 11:02 | 21.62454 | 80.35786 | 36707 ft | 530 kts | 70° |
| 2026-04-27 11:03 | 21.64704 | 80.43314 | 36716 ft | 530 kts | 70° |
| 2026-04-27 11:03 | 21.66947 | 80.50836 | 36731 ft | 530 kts | 70° |
| 2026-04-27 11:04 | 21.69157 | 80.58437 | 36745 ft | 532 kts | 71° |
| 2026-04-27 11:04 | 21.71225 | 80.66039 | 36765 ft | 531 kts | 73° |
| 2026-04-27 11:05 | 21.73196 | 80.73588 | 36778 ft | 532 kts | 73° |
| 2026-04-27 11:05 | 21.75192 | 80.81242 | 36779 ft | 531 kts | 72° |
| 2026-04-27 11:06 | 21.77204 | 80.88884 | 36780 ft | 533 kts | 72° |
| 2026-04-27 11:06 | 21.79214 | 80.96490 | 36777 ft | 530 kts | 72° |
| 2026-04-27 11:07 | 21.81248 | 81.04183 | 36771 ft | 532 kts | 72° |
| 2026-04-27 11:07 | 21.83275 | 81.11836 | 36756 ft | 532 kts | 71° |
| 2026-04-27 11:08 | 21.85307 | 81.19505 | 36737 ft | 532 kts | 72° |
| 2026-04-27 11:08 | 21.87323 | 81.27169 | 36716 ft | 532 kts | 72° |
| 2026-04-27 11:09 | 21.89331 | 81.34823 | 36701 ft | 531 kts | 71° |
| 2026-04-27 11:09 | 21.91341 | 81.42457 | 36699 ft | 531 kts | 71° |
| 2026-04-27 11:10 | 21.93356 | 81.50098 | 36689 ft | 532 kts | 71° |
| 2026-04-27 11:10 | 21.95410 | 81.57778 | 36687 ft | 532 kts | 71° |
| 2026-04-27 11:11 | 21.97484 | 81.65431 | 36681 ft | 530 kts | 72° |
| 2026-04-27 11:11 | 21.99542 | 81.73021 | 36677 ft | 532 kts | 71° |
| 2026-04-27 11:12 | 22.01603 | 81.80673 | 36682 ft | 531 kts | 72° |
| 2026-04-27 11:12 | 22.03657 | 81.88303 | 36670 ft | 530 kts | 71° |
| 2026-04-27 11:13 | 22.05712 | 81.95943 | 36659 ft | 531 kts | 71° |
| 2026-04-27 11:13 | 22.07757 | 82.03624 | 36659 ft | 531 kts | 71° |
| 2026-04-27 11:14 | 22.09777 | 82.11232 | 36661 ft | 531 kts | 72° |
| 2026-04-27 11:14 | 22.11788 | 82.18796 | 36665 ft | 530 kts | 71° |
| 2026-04-27 11:15 | 22.13804 | 82.26381 | 36666 ft | 530 kts | 71° |
| 2026-04-27 11:15 | 22.15826 | 82.34014 | 36666 ft | 529 kts | 71° |
| 2026-04-27 11:16 | 22.17845 | 82.41678 | 36666 ft | 529 kts | 72° |
| 2026-04-27 11:16 | 22.19852 | 82.49300 | 36662 ft | 527 kts | 71° |
| 2026-04-27 11:17 | 22.21864 | 82.56913 | 36658 ft | 529 kts | 71° |
| 2026-04-27 11:17 | 22.23876 | 82.64571 | 36657 ft | 529 kts | 71° |
| 2026-04-27 11:18 | 22.25837 | 82.72052 | 36659 ft | 528 kts | 71° |
| 2026-04-27 11:18 | 22.27869 | 82.79640 | 36667 ft | 528 kts | 71° |
| 2026-04-27 11:19 | 22.29963 | 82.87286 | 36678 ft | 527 kts | 71° |
| 2026-04-27 11:19 | 22.32045 | 82.94868 | 36678 ft | 529 kts | 70° |
| 2026-04-27 11:20 | 22.34116 | 83.02460 | 36676 ft | 528 kts | 71° |
| 2026-04-27 11:20 | 22.36181 | 83.10098 | 36683 ft | 526 kts | 71° |
| 2026-04-27 11:21 | 22.38236 | 83.17691 | 36688 ft | 528 kts | 71° |
| 2026-04-27 11:21 | 22.40286 | 83.25281 | 36697 ft | 526 kts | 71° |
| 2026-04-27 11:22 | 22.42328 | 83.32873 | 36703 ft | 528 kts | 71° |
| 2026-04-27 11:22 | 22.44367 | 83.40504 | 36715 ft | 525 kts | 71° |
| 2026-04-27 11:23 | 22.46396 | 83.48076 | 36724 ft | 526 kts | 71° |
| 2026-04-27 11:23 | 22.48426 | 83.55673 | 36739 ft | 526 kts | 71° |
| 2026-04-27 11:24 | 22.50457 | 83.63294 | 36738 ft | 526 kts | 71° |
| 2026-04-27 11:24 | 22.52458 | 83.70815 | 36729 ft | 526 kts | 71° |
| 2026-04-27 11:25 | 22.54497 | 83.78455 | 36715 ft | 529 kts | 71° |
| 2026-04-27 11:25 | 22.56530 | 83.86081 | 36727 ft | 525 kts | 71° |
| 2026-04-27 11:26 | 22.58536 | 83.93653 | 36727 ft | 525 kts | 71° |
| 2026-04-27 11:26 | 22.60537 | 84.01242 | 36722 ft | 526 kts | 71° |
| 2026-04-27 11:27 | 22.62542 | 84.08875 | 36725 ft | 525 kts | 71° |
| 2026-04-27 11:27 | 22.64540 | 84.16482 | 36740 ft | 523 kts | 70° |
| 2026-04-27 11:28 | 22.66525 | 84.24014 | 36739 ft | 524 kts | 71° |
| 2026-04-27 11:28 | 22.68525 | 84.31639 | 36739 ft | 524 kts | 70° |
| 2026-04-27 11:29 | 22.70505 | 84.39217 | 36748 ft | 521 kts | 71° |
| 2026-04-27 11:29 | 22.72476 | 84.46798 | 36758 ft | 524 kts | 70° |
| 2026-04-27 11:30 | 22.74636 | 84.54306 | 36766 ft | 519 kts | 65° |
| 2026-04-27 11:30 | 22.77957 | 84.61153 | 36772 ft | 508 kts | 50° |
| 2026-04-27 11:31 | 22.82156 | 84.67216 | 36766 ft | 502 kts | 45° |
| 2026-04-27 11:31 | 22.86580 | 84.73035 | 36756 ft | 501 kts | 44° |
| 2026-04-27 11:32 | 22.91055 | 84.78869 | 36742 ft | 502 kts | 45° |
| 2026-04-27 11:32 | 22.95460 | 84.84695 | 36738 ft | 506 kts | 45° |
| 2026-04-27 11:33 | 22.99899 | 84.90636 | 36737 ft | 502 kts | 45° |
| 2026-04-27 11:33 | 23.04274 | 84.96543 | 36742 ft | 502 kts | 46° |
| 2026-04-27 11:34 | 23.08642 | 85.02448 | 36737 ft | 501 kts | 45° |
| 2026-04-27 11:34 | 23.12962 | 85.08292 | 36751 ft | 502 kts | 46° |
| 2026-04-27 11:35 | 23.17300 | 85.14185 | 36758 ft | 499 kts | 46° |
| 2026-04-27 11:35 | 23.21653 | 85.20083 | 36756 ft | 499 kts | 46° |
| 2026-04-27 11:36 | 23.25969 | 85.25934 | 36760 ft | 498 kts | 46° |
| 2026-04-27 11:36 | 23.30094 | 85.31994 | 36754 ft | 503 kts | 53° |
| 2026-04-27 11:37 | 23.33408 | 85.38497 | 36749 ft | 504 kts | 59° |
| 2026-04-27 11:37 | 23.36361 | 85.45364 | 36744 ft | 508 kts | 62° |
| 2026-04-27 11:38 | 23.39158 | 85.52168 | 36736 ft | 505 kts | 61° |
| 2026-04-27 11:38 | 23.42014 | 85.59115 | 36716 ft | 507 kts | 62° |
| 2026-04-27 11:39 | 23.44733 | 85.65668 | 36693 ft | 506 kts | 62° |
| 2026-04-27 11:39 | 23.47405 | 85.72101 | 36664 ft | 502 kts | 62° |
| 2026-04-27 11:40 | 23.50258 | 85.78966 | 36647 ft | 506 kts | 61° |
| 2026-04-27 11:40 | 23.53088 | 85.85798 | 36643 ft | 502 kts | 62° |
| 2026-04-27 11:41 | 23.55871 | 85.92496 | 36639 ft | 501 kts | 62° |
| 2026-04-27 11:41 | 23.58674 | 85.99255 | 36634 ft | 502 kts | 61° |
| 2026-04-27 11:42 | 23.61523 | 86.06159 | 36621 ft | 503 kts | 62° |
| 2026-04-27 11:42 | 23.63892 | 86.13371 | 36605 ft | 507 kts | 75° |
| 2026-04-27 11:43 | 23.64672 | 86.20976 | 36602 ft | 510 kts | 86° |
| 2026-04-27 11:43 | 23.64691 | 86.28726 | 36601 ft | 510 kts | 89° |
| 2026-04-27 11:44 | 23.64506 | 86.36489 | 36595 ft | 510 kts | 90° |
| 2026-04-27 11:44 | 23.64308 | 86.44233 | 36599 ft | 510 kts | 90° |
| 2026-04-27 11:45 | 23.64160 | 86.50662 | 36600 ft | 509 kts | 90° |
| 2026-04-27 11:45 | 23.63966 | 86.59683 | 36591 ft | 510 kts | 89° |
| 2026-04-27 11:46 | 23.63803 | 86.67316 | 36580 ft | 507 kts | 90° |
| 2026-04-27 11:46 | 23.63642 | 86.74880 | 36570 ft | 509 kts | 90° |
| 2026-04-27 11:47 | 23.63480 | 86.82648 | 36561 ft | 507 kts | 90° |
| 2026-04-27 11:47 | 23.63315 | 86.90320 | 36561 ft | 508 kts | 90° |
| 2026-04-27 11:48 | 23.63140 | 86.98025 | 36553 ft | 508 kts | 90° |
| 2026-04-27 11:48 | 23.63181 | 87.05688 | 36560 ft | 508 kts | 86° |
| 2026-04-27 11:49 | 23.63438 | 87.13321 | 36566 ft | 505 kts | 86° |
| 2026-04-27 11:49 | 23.64189 | 87.20908 | 36566 ft | 501 kts | 73° |
| 2026-04-27 11:50 | 23.66577 | 87.27956 | 36567 ft | 494 kts | 60° |
| 2026-04-27 11:50 | 23.70169 | 87.34273 | 36571 ft | 489 kts | 51° |
| 2026-04-27 11:51 | 23.74150 | 87.40289 | 36570 ft | 489 kts | 50° |
| 2026-04-27 11:52 | 23.79915 | 87.49481 | 36565 ft | 489 kts | 53° |
| 2026-04-27 11:52 | 23.83592 | 87.55723 | 36567 ft | 489 kts | 54° |
| 2026-04-27 11:53 | 23.87249 | 87.62045 | 36555 ft | 487 kts | 54° |
| 2026-04-27 11:53 | 23.90833 | 87.68275 | 36550 ft | 488 kts | 55° |
| 2026-04-27 11:54 | 23.94416 | 87.74516 | 36553 ft | 486 kts | 56° |
| 2026-04-27 11:54 | 23.97985 | 87.80738 | 36555 ft | 486 kts | 55° |
| 2026-04-27 11:55 | 24.01592 | 87.87028 | 36552 ft | 487 kts | 56° |
| 2026-04-27 11:55 | 24.05210 | 87.93351 | 36560 ft | 487 kts | 55° |
| 2026-04-27 11:56 | 24.08803 | 87.99639 | 36555 ft | 488 kts | 56° |
| 2026-04-27 11:56 | 24.12321 | 88.05800 | 36561 ft | 487 kts | 56° |
| 2026-04-27 11:57 | 24.15927 | 88.12119 | 36562 ft | 489 kts | 56° |
| 2026-04-27 11:57 | 24.19549 | 88.18481 | 36563 ft | 490 kts | 56° |
| 2026-04-27 11:58 | 24.23151 | 88.24810 | 36575 ft | 490 kts | 56° |
| 2026-04-27 11:58 | 24.26761 | 88.31158 | 36570 ft | 493 kts | 56° |
| 2026-04-27 11:59 | 24.30394 | 88.37558 | 36565 ft | 494 kts | 56° |
| 2026-04-27 11:59 | 24.34029 | 88.43977 | 36563 ft | 494 kts | 56° |
| 2026-04-27 12:00 | 24.37653 | 88.50380 | 36565 ft | 497 kts | 57° |
| 2026-04-27 12:00 | 24.41301 | 88.56837 | 36562 ft | 497 kts | 56° |
| 2026-04-27 12:01 | 24.44931 | 88.63260 | 36560 ft | 496 kts | 56° |
| 2026-04-27 12:01 | 24.48633 | 88.69537 | 36559 ft | 498 kts | 56° |
| 2026-04-27 12:02 | 24.52431 | 88.75822 | 36563 ft | 499 kts | 55° |
| 2026-04-27 12:02 | 24.56241 | 88.82130 | 36567 ft | 499 kts | 56° |
| 2026-04-27 12:03 | 24.60104 | 88.88563 | 36573 ft | 503 kts | 56° |
| 2026-04-27 12:03 | 24.63919 | 88.94959 | 36577 ft | 503 kts | 56° |
| 2026-04-27 12:04 | 24.67747 | 89.01397 | 36579 ft | 502 kts | 56° |
| 2026-04-27 12:04 | 24.71566 | 89.07832 | 36586 ft | 506 kts | 56° |
| 2026-04-27 12:05 | 24.75426 | 89.14339 | 36589 ft | 506 kts | 56° |
| 2026-04-27 12:05 | 24.79250 | 89.20796 | 36587 ft | 508 kts | 55° |
| 2026-04-27 12:06 | 24.83112 | 89.27319 | 36593 ft | 509 kts | 55° |
| 2026-04-27 12:06 | 24.86938 | 89.33808 | 36590 ft | 511 kts | 55° |
| 2026-04-27 12:07 | 24.90837 | 89.40422 | 36592 ft | 509 kts | 55° |
| 2026-04-27 12:07 | 24.94672 | 89.46957 | 36595 ft | 511 kts | 55° |
| 2026-04-27 12:08 | 24.98536 | 89.53581 | 36598 ft | 513 kts | 55° |
| 2026-04-27 12:08 | 25.02352 | 89.60119 | 36606 ft | 511 kts | 54° |
| 2026-04-27 12:09 | 25.06211 | 89.66724 | 36612 ft | 516 kts | 55° |
| 2026-04-27 12:09 | 25.09938 | 89.73122 | 36615 ft | 516 kts | 55° |
| 2026-04-27 12:10 | 25.13751 | 89.79680 | 36612 ft | 513 kts | 55° |
| 2026-04-27 12:10 | 25.17540 | 89.86202 | 36617 ft | 512 kts | 54° |
| 2026-04-27 12:11 | 25.21357 | 89.92775 | 36390 ft | 503 kts | 54° |
| 2026-04-27 12:11 | 25.23219 | 89.95992 | 36002 ft | 497 kts | 54° |
| 2026-04-27 12:11 | 25.25069 | 89.99191 | 35501 ft | 493 kts | 54° |
| 2026-04-27 12:11 | 25.26876 | 90.02316 | 35032 ft | 488 kts | 53° |
| 2026-04-27 12:12 | 25.28746 | 90.05499 | 34493 ft | 485 kts | 53° |
| 2026-04-27 12:12 | 25.30569 | 90.08536 | 33956 ft | 483 kts | 52° |
| 2026-04-27 12:12 | 25.32409 | 90.11565 | 33421 ft | 480 kts | 52° |
| 2026-04-27 12:12 | 25.34200 | 90.14503 | 32903 ft | 478 kts | 52° |
| 2026-04-27 12:13 | 25.36045 | 90.17526 | 32417 ft | 476 kts | 52° |
| 2026-04-27 12:13 | 25.37311 | 90.19605 | 32061 ft | 475 kts | 52° |
| 2026-04-27 12:13 | 25.39338 | 90.22940 | 31486 ft | 473 kts | 52° |
| 2026-04-27 12:13 | 25.41209 | 90.26028 | 30948 ft | 471 kts | 52° |
| 2026-04-27 12:14 | 25.43015 | 90.29016 | 30411 ft | 469 kts | 52° |
| 2026-04-27 12:14 | 25.44658 | 90.31737 | 29914 ft | 468 kts | 52° |
| 2026-04-27 12:14 | 25.46431 | 90.34682 | 29382 ft | 466 kts | 52° |
| 2026-04-27 12:14 | 25.48295 | 90.37780 | 28803 ft | 463 kts | 52° |
| 2026-04-27 12:15 | 25.50003 | 90.40622 | 28260 ft | 460 kts | 52° |
| 2026-04-27 12:15 | 25.51736 | 90.43507 | 27719 ft | 457 kts | 52° |
| 2026-04-27 12:15 | 25.53437 | 90.46342 | 27185 ft | 454 kts | 52° |
| 2026-04-27 12:15 | 25.55131 | 90.49166 | 26648 ft | 451 kts | 51° |
| 2026-04-27 12:16 | 25.56655 | 90.51708 | 26163 ft | 449 kts | 51° |
| 2026-04-27 12:16 | 25.58068 | 90.54067 | 25727 ft | 446 kts | 51° |
| 2026-04-27 12:16 | 25.60047 | 90.57371 | 25115 ft | 442 kts | 51° |
| 2026-04-27 12:16 | 25.61708 | 90.60148 | 24601 ft | 439 kts | 51° |
| 2026-04-27 12:17 | 25.63415 | 90.62994 | 24056 ft | 435 kts | 50° |
| 2026-04-27 12:17 | 25.65089 | 90.65698 | 23529 ft | 432 kts | 50° |
| 2026-04-27 12:17 | 25.66474 | 90.67870 | 23110 ft | 429 kts | 49° |
| 2026-04-27 12:18 | 25.69799 | 90.73006 | 22133 ft | 422 kts | 49° |
| 2026-04-27 12:18 | 25.71320 | 90.75353 | 21679 ft | 419 kts | 49° |
| 2026-04-27 12:18 | 25.74306 | 90.79981 | 20785 ft | 413 kts | 49° |
| 2026-04-27 12:19 | 25.75770 | 90.82259 | 20358 ft | 409 kts | 50° |